Terminal Aerodrome Forecast
Issued by NWS Charleston, WV

Current Version | Previous Version | Graphics & Text | Print | Product List | Glossary On
Versions: 1 2 3 4 5 6 7 8 9 10 11 12 13 14 15 16 17 18 19 20 21 22 23 24 25 26 27 28 29 30
000
FTUS41 KRLX 171700 RRA
TAFPKB
TAF
KPKB 171742Z 1718/1818 22013G22KT P6SM SCT250
     FM172200 23010G14KT P6SM SCT070
     FM180000 24009KT P6SM BKN045
     FM180300 26008KT P6SM BKN035
     FM180500 25007KT P6SM BKN030
     FM180900 26007KT P6SM BKN025
     FM181400 28010G20KT P6SM OVC020=

USA.gov is the U.S. government's official web portal to all federal, state and local government web resources and services.